NCAR-RAP Real-Time Weather Data

Output produced by METARs form (17 September 2019  17:20 UTC)
found at http://weather.rap.ucar.edu/surface/
 
KSGF 171652Z 17008KT 10SM CLR 32/19 A3010 RMK AO2 SLP177 T03220194
KSGF 171552Z 18009KT 10SM CLR 31/19 A3011 RMK AO2 SLP180 T03060194
KSGF 171452Z 17007KT 10SM CLR 29/19 A3010 RMK AO2 SLP179 T02890194 50005
KSGF 171352Z 16005KT 10SM CLR 25/19 A3011 RMK AO2 SLP182 T02500189
KSGF 171252Z 16005KT 10SM CLR 22/18 A3010 RMK AO2 SLP180 T02170178
KSGF 171152Z 16004KT 10SM CLR 21/17 A3009 RMK AO2 SLP175 T02060167 10228 20200 53009
KSGF 171052Z 15003KT 10SM CLR 21/17 A3007 RMK AO2 SLP169 T02110167
KSGF 170952Z 00000KT 10SM CLR 22/17 A3006 RMK AO2 SLP165 T02170172
KSGF 170852Z 14007KT 10SM CLR 21/17 A3006 RMK AO2 SLP163 T02060172 58001
KSGF 170752Z 14006KT 10SM CLR 21/17 A3006 RMK AO2 SLP165 T02110172
KSGF 170652Z 14005KT 10SM CLR 21/17 A3006 RMK AO2 SLP165 T02110172
KSGF 170552Z 15004KT 10SM CLR 23/18 A3006 RMK AO2 SLP164 T02280178 10300 20222 403500200 58002
KSGF 170452Z 15007KT 10SM CLR 23/18 A3006 RMK AO2 SLP165 T02330178
KSGF 170352Z 16005KT 10SM CLR 24/19 A3007 RMK AO2 SLP166 T02440194
KSGF 170252Z 16004KT 10SM CLR 24/21 A3007 RMK AO2 SLP167 T02390206 53006
KSGF 170052Z 00000KT 10SM FEW120 29/21 A3005 RMK AO2 SLP161 T02890206
KSGF 162352Z 00000KT 10SM OVC070 30/21 A3005 RMK AO2 SLP161 T03000211 10350 20300 55002
KSGF 162252Z 22004KT 10SM BKN070 32/19 A3005 RMK AO2 SLP160 T03220194
KSGF 162152Z 00000KT 10SM BKN070 OVC090 34/17 A3004 RMK AO2 SLP159 T03390172